Time;durP1;ratioP1;P1;durP2;ratioP2;P2;SDS_P1;SDS_P2;PMS_P1;PMS_P2;Temp;Humidity;BMP_temperature;BMP_pressure;BME280_temperature;BME280_humidity;BME280_pressure;Samples;Min_cycle;Max_cycle;Signal;HPM_P1;HPM_P2
2022/01/29 00:01:11;;;;;;;;;;;1.30;99.90;;;;;;5114752;28;19924;-52
2022/01/29 00:03:39;;;;;;;;;;;1.10;99.90;;;;;;5114469;28;19973;-52
2022/01/29 00:06:06;;;;;;;;;;;1.00;99.90;;;;;;5113445;28;20382;-51
2022/01/29 00:08:33;;;;;;;;;;;1.10;99.90;;;;;;5114411;28;19927;-52
2022/01/29 00:11:07;;;;;;;;;;;1.20;99.90;;;;;;5115032;28;19931;-52
2022/01/29 00:13:34;;;;;;;;;;;1.10;99.90;;;;;;5113681;28;19977;-51
2022/01/29 00:16:01;;;;;;;;;;;0.90;99.90;;;;;;5114763;28;20370;-51
2022/01/29 00:18:28;;;;;;;;;;;0.80;99.90;;;;;;5114564;28;19928;-51
2022/01/29 00:20:56;;;;;;;;;;;0.90;99.90;;;;;;5114345;28;19928;-52
2022/01/29 00:23:22;;;;;;;;;;;0.70;99.90;;;;;;5118279;28;19977;-52
2022/01/29 00:25:49;;;;;;;;;;;0.60;99.90;;;;;;5132110;27;19975;-52
2022/01/29 00:28:16;;;;;;;;;;;0.70;99.90;;;;;;5139410;27;19976;-52
2022/01/29 00:30:43;;;;;;;;;;;0.60;99.90;;;;;;5121026;27;19924;-52
2022/01/29 00:33:10;;;;;;;;;;;0.60;99.90;;;;;;5118080;27;19947;-52
2022/01/29 00:35:37;;;;;;;;;;;0.60;99.90;;;;;;5118416;28;19923;-53
2022/01/29 00:38:05;;;;;;;;;;;0.50;99.90;;;;;;5118392;28;19923;-53
2022/01/29 00:40:32;;;;;;;;;;;0.40;99.90;;;;;;5118751;27;19924;-53
2022/01/29 00:42:59;;;;;;;;;;;0.40;99.90;;;;;;5118459;28;20351;-52
2022/01/29 00:45:26;;;;;;;;;;;0.50;99.90;;;;;;5117639;28;19924;-52
2022/01/29 00:47:53;;;;;;;;;;;0.40;99.90;;;;;;5118029;28;19969;-53
2022/01/29 00:50:19;;;;;;;;;;;0.40;99.90;;;;;;5118271;28;19927;-53
2022/01/29 00:52:47;;;;;;;;;;;0.40;99.90;;;;;;5120166;27;19923;-52
2022/01/29 00:55:15;;;;;;;;;;;0.50;99.90;;;;;;5133325;27;20014;-52
2022/01/29 00:57:43;;;;;;;;;;;0.50;99.90;;;;;;5118324;27;20377;-52
2022/01/29 01:00:11;;;;;;;;;;;0.40;99.90;;;;;;5117022;28;19924;-52
2022/01/29 01:02:38;;;;;;;;;;;0.40;99.90;;;;;;5117057;28;19927;-53
2022/01/29 01:05:05;;;;;;;;;;;0.40;99.90;;;;;;5117999;28;19927;-53
2022/01/29 01:07:32;;;;;;;;;;;0.40;99.90;;;;;;5125935;27;19924;-53
2022/01/29 01:09:58;;;;;;;;;;;0.30;99.90;;;;;;5135261;27;19931;-52
2022/01/29 01:12:27;;;;;;;;;;;0.40;99.90;;;;;;5118032;28;19924;-52
2022/01/29 01:14:53;;;;;;;;;;;0.40;99.90;;;;;;5117720;28;19924;-52
2022/01/29 01:17:20;;;;;;;;;;;0.50;99.90;;;;;;5117053;28;19927;-53
2022/01/29 01:19:47;;;;;;;;;;;0.40;99.90;;;;;;5116196;28;19924;-52
2022/01/29 01:22:16;;;;;;;;;;;0.50;99.90;;;;;;5129935;27;20338;-52
2022/01/29 01:24:43;;;;;;;;;;;0.40;99.90;;;;;;5138013;27;19982;-53
2022/01/29 01:27:10;;;;;;;;;;;0.40;99.90;;;;;;5138177;27;19952;-52
2022/01/29 01:29:38;;;;;;;;;;;0.50;99.90;;;;;;5121963;27;19946;-52
2022/01/29 01:32:10;;;;;;;;;;;0.50;99.90;;;;;;5116954;28;19928;-52
2022/01/29 01:34:38;;;;;;;;;;;0.60;99.90;;;;;;5116549;28;20377;-52
2022/01/29 01:37:09;;;;;;;;;;;0.60;99.90;;;;;;5101618;27;19946;-52
2022/01/29 01:39:37;;;;;;;;;;;0.50;99.90;;;;;;5097388;28;19943;-52
2022/01/29 01:42:05;;;;;;;;;;;0.60;99.90;;;;;;5096467;28;19970;-52
2022/01/29 01:44:36;;;;;;;;;;;0.70;99.90;;;;;;5096097;28;19931;-53
2022/01/29 01:47:04;;;;;;;;;;;0.90;99.90;;;;;;5116608;28;19928;-52
2022/01/29 01:49:31;;;;;;;;;;;1.00;99.90;;;;;;5116835;27;19977;-52
2022/01/29 01:51:58;;;;;;;;;;;1.10;99.90;;;;;;5110872;28;19924;-52
2022/01/29 01:54:25;;;;;;;;;;;1.20;99.90;;;;;;5096579;28;20385;-52
2022/01/29 01:56:52;;;;;;;;;;;1.30;99.90;;;;;;5114632;27;19927;-52
2022/01/29 01:59:18;;;;;;;;;;;1.40;99.90;;;;;;5137123;27;19924;-52
2022/01/29 02:01:45;;;;;;;;;;;1.40;99.90;;;;;;5116955;27;19924;-52
2022/01/29 02:04:13;;;;;;;;;;;1.50;99.90;;;;;;5117236;27;19924;-53
2022/01/29 02:06:40;;;;;;;;;;;1.50;99.90;;;;;;5117329;28;19969;-52
2022/01/29 02:09:07;;;;;;;;;;;1.40;99.90;;;;;;5104905;28;19924;-53
2022/01/29 02:11:33;;;;;;;;;;;1.50;99.90;;;;;;5096032;28;19975;-52
2022/01/29 02:14:00;;;;;;;;;;;1.40;99.90;;;;;;5096486;28;19924;-52
2022/01/29 02:16:28;;;;;;;;;;;1.40;99.90;;;;;;5115478;28;19927;-52
2022/01/29 02:18:55;;;;;;;;;;;1.50;99.90;;;;;;5130637;27;20393;-53
2022/01/29 02:21:28;;;;;;;;;;;1.50;99.90;;;;;;5136768;27;19976;-53
2022/01/29 02:23:56;;;;;;;;;;;1.50;99.90;;;;;;5135056;27;19924;-52
2022/01/29 02:26:23;;;;;;;;;;;1.40;99.90;;;;;;5100955;27;19924;-53
2022/01/29 02:28:49;;;;;;;;;;;1.30;99.90;;;;;;5095776;28;19973;-53
2022/01/29 02:31:16;;;;;;;;;;;1.30;99.90;;;;;;5115401;28;20377;-54
2022/01/29 02:33:44;;;;;;;;;;;1.40;99.90;;;;;;5095128;28;19924;-52
2022/01/29 02:36:10;;;;;;;;;;;1.40;99.90;;;;;;5108441;28;19930;-52
2022/01/29 02:38:37;;;;;;;;;;;1.30;99.90;;;;;;5115677;28;19928;-52
2022/01/29 02:41:06;;;;;;;;;;;1.40;99.90;;;;;;5114849;28;20509;-52
2022/01/29 02:43:37;;;;;;;;;;;1.50;99.90;;;;;;5095440;28;19924;-52
2022/01/29 02:46:08;;;;;;;;;;;1.30;99.90;;;;;;5114300;28;19924;-53
2022/01/29 02:48:35;;;;;;;;;;;1.30;99.90;;;;;;5115676;28;19930;-52
2022/01/29 02:51:01;;;;;;;;;;;1.30;99.90;;;;;;5115814;28;19927;-52
2022/01/29 02:53:29;;;;;;;;;;;1.20;99.90;;;;;;5116178;28;19924;-52
2022/01/29 02:55:56;;;;;;;;;;;1.30;99.90;;;;;;5115687;28;19949;-52
2022/01/29 02:58:24;;;;;;;;;;;1.20;99.90;;;;;;5114349;28;19976;-52
2022/01/29 03:00:51;;;;;;;;;;;1.30;99.90;;;;;;5116839;27;19924;-52
2022/01/29 03:03:18;;;;;;;;;;;1.40;99.90;;;;;;5115647;28;19977;-52
2022/01/29 03:05:45;;;;;;;;;;;1.40;99.90;;;;;;5115862;28;19931;-52
2022/01/29 03:08:12;;;;;;;;;;;1.40;99.90;;;;;;5115044;28;19984;-53
2022/01/29 03:10:39;;;;;;;;;;;1.30;99.90;;;;;;5115701;28;19945;-52
2022/01/29 03:13:05;;;;;;;;;;;1.30;99.90;;;;;;5115149;28;19924;-52
2022/01/29 03:15:34;;;;;;;;;;;1.40;99.90;;;;;;5118834;27;20351;-52
2022/01/29 03:18:00;;;;;;;;;;;1.50;99.90;;;;;;5114721;28;19928;-53
2022/01/29 03:20:27;;;;;;;;;;;1.50;99.90;;;;;;5114863;28;19930;-52
2022/01/29 03:22:54;;;;;;;;;;;1.60;99.90;;;;;;5115364;28;20316;-52
2022/01/29 03:25:21;;;;;;;;;;;1.60;99.90;;;;;;5114764;28;19923;-53
2022/01/29 03:27:47;;;;;;;;;;;1.70;99.90;;;;;;5115007;27;19946;-52
2022/01/29 03:30:14;;;;;;;;;;;1.70;99.90;;;;;;5114412;28;19924;-52
2022/01/29 03:32:42;;;;;;;;;;;1.80;99.90;;;;;;5093755;28;19946;-53
2022/01/29 03:35:10;;;;;;;;;;;1.70;99.90;;;;;;5094285;28;20359;-52
2022/01/29 03:37:37;;;;;;;;;;;1.70;99.90;;;;;;5094442;28;20378;-52
2022/01/29 03:40:06;;;;;;;;;;;1.70;99.90;;;;;;5094471;28;19926;-53
2022/01/29 03:42:38;;;;;;;;;;;1.70;99.90;;;;;;5100840;27;19924;-53
2022/01/29 03:45:07;;;;;;;;;;;1.70;99.90;;;;;;5113889;28;20413;-52
2022/01/29 03:47:33;;;;;;;;;;;1.80;99.90;;;;;;5114806;28;19923;-53
2022/01/29 03:50:02;;;;;;;;;;;1.80;99.90;;;;;;5116684;27;19980;-52
2022/01/29 03:52:28;;;;;;;;;;;1.80;99.90;;;;;;5113781;28;19923;-52
2022/01/29 03:54:55;;;;;;;;;;;1.80;99.90;;;;;;5118674;27;19936;-52
2022/01/29 03:57:22;;;;;;;;;;;1.70;99.90;;;;;;5114024;28;19977;-52
2022/01/29 03:59:48;;;;;;;;;;;1.70;99.90;;;;;;5113576;28;19932;-51
2022/01/29 04:02:15;;;;;;;;;;;1.70;99.90;;;;;;5113844;28;19923;-51
2022/01/29 04:04:42;;;;;;;;;;;1.70;99.90;;;;;;5114173;28;19977;-51
2022/01/29 04:07:12;;;;;;;;;;;1.80;99.90;;;;;;5113462;28;20293;-51
2022/01/29 04:09:46;;;;;;;;;;;1.80;99.90;;;;;;5113539;28;20453;-51
2022/01/29 04:12:13;;;;;;;;;;;1.90;99.90;;;;;;5113421;28;19923;-51
2022/01/29 04:14:40;;;;;;;;;;;1.90;99.90;;;;;;5113969;28;20019;-51
2022/01/29 04:17:08;;;;;;;;;;;1.80;99.90;;;;;;5113808;28;20431;-50
2022/01/29 04:19:35;;;;;;;;;;;2.00;99.90;;;;;;5113352;28;20002;-53
2022/01/29 04:22:02;;;;;;;;;;;2.10;99.90;;;;;;5114091;28;19930;-51
2022/01/29 04:24:30;;;;;;;;;;;1.90;99.90;;;;;;5114831;28;20335;-51
2022/01/29 04:26:57;;;;;;;;;;;1.80;99.90;;;;;;5116849;28;19930;-51
2022/01/29 04:29:27;;;;;;;;;;;1.70;99.90;;;;;;5116663;28;19946;-51
2022/01/29 04:32:05;;;;;;;;;;;1.60;99.90;;;;;;5116657;28;19923;-51
2022/01/29 04:34:32;;;;;;;;;;;1.60;99.90;;;;;;5116310;28;20449;-51
2022/01/29 04:36:59;;;;;;;;;;;1.50;99.90;;;;;;5118736;28;19923;-51
2022/01/29 04:39:25;;;;;;;;;;;1.40;99.90;;;;;;5113057;28;20522;-50
2022/01/29 04:41:53;;;;;;;;;;;1.40;99.90;;;;;;5125172;28;19950;-51
2022/01/29 04:44:20;;;;;;;;;;;1.30;99.90;;;;;;5113931;28;19981;-51
2022/01/29 04:46:47;;;;;;;;;;;1.30;99.90;;;;;;5113674;28;19932;-52
2022/01/29 04:49:14;;;;;;;;;;;1.30;99.90;;;;;;5113355;28;19932;-51
2022/01/29 04:51:40;;;;;;;;;;;1.30;99.90;;;;;;5113554;28;19928;-53
2022/01/29 04:54:07;;;;;;;;;;;1.40;99.90;;;;;;5111847;28;20397;-50
2022/01/29 04:56:34;;;;;;;;;;;1.40;99.90;;;;;;5102487;28;20389;-50
2022/01/29 04:59:03;;;;;;;;;;;1.40;99.90;;;;;;5113367;28;19923;-50
2022/01/29 05:01:30;;;;;;;;;;;1.30;99.90;;;;;;5113315;28;19969;-51
2022/01/29 05:03:56;;;;;;;;;;;1.30;99.90;;;;;;5113685;28;19930;-51
2022/01/29 05:06:23;;;;;;;;;;;1.30;99.90;;;;;;5113621;28;19953;-51
2022/01/29 05:08:50;;;;;;;;;;;1.30;99.90;;;;;;5114074;28;19935;-51
2022/01/29 05:11:18;;;;;;;;;;;1.30;99.90;;;;;;5117690;27;19924;-51
2022/01/29 05:13:44;;;;;;;;;;;1.20;99.90;;;;;;5117684;27;19928;-50
2022/01/29 05:16:33;;;;;;;;;;;1.40;99.90;;;;;;5117349;27;19924;-50
2022/01/29 05:27:13;;;;;;;;;;;1.50;99.90;;;;;;5100847;28;20350;-51
2022/01/29 05:29:40;;;;;;;;;;;1.50;99.90;;;;;;5116923;28;20168;-51
2022/01/29 05:32:11;;;;;;;;;;;1.50;99.90;;;;;;5116393;28;19928;-51
2022/01/29 05:34:38;;;;;;;;;;;1.50;99.90;;;;;;5116656;28;19985;-51
2022/01/29 05:37:06;;;;;;;;;;;1.50;99.90;;;;;;5116169;28;19930;-53
2022/01/29 05:39:32;;;;;;;;;;;1.50;99.90;;;;;;5116580;28;19924;-52
2022/01/29 05:42:00;;;;;;;;;;;1.40;99.90;;;;;;5116886;28;19977;-52
2022/01/29 05:44:27;;;;;;;;;;;1.40;99.90;;;;;;5115641;28;19963;-52
2022/01/29 05:46:54;;;;;;;;;;;1.40;99.90;;;;;;5118271;27;20354;-52
2022/01/29 05:49:22;;;;;;;;;;;1.40;99.90;;;;;;5130274;22;19924;-51
2022/01/29 05:51:49;;;;;;;;;;;1.40;99.90;;;;;;5114339;27;19924;-49
2022/01/29 05:54:16;;;;;;;;;;;1.50;99.90;;;;;;5113854;28;19936;-50
2022/01/29 05:56:42;;;;;;;;;;;1.40;99.90;;;;;;5114438;28;19924;-50
2022/01/29 05:59:09;;;;;;;;;;;1.30;99.90;;;;;;5114073;28;19953;-50
2022/01/29 06:01:36;;;;;;;;;;;1.30;99.90;;;;;;5114256;28;20367;-50
2022/01/29 06:04:02;;;;;;;;;;;1.30;99.90;;;;;;5114494;28;19924;-50
2022/01/29 06:06:30;;;;;;;;;;;1.30;99.90;;;;;;5113832;28;19927;-50
2022/01/29 06:09:01;;;;;;;;;;;1.30;99.90;;;;;;5114013;28;19924;-50
2022/01/29 06:11:28;;;;;;;;;;;1.40;99.90;;;;;;5113865;28;19924;-49
2022/01/29 06:13:54;;;;;;;;;;;1.40;99.90;;;;;;5113650;28;19924;-49
2022/01/29 06:16:21;;;;;;;;;;;1.40;99.90;;;;;;5114197;28;19928;-49
2022/01/29 06:18:48;;;;;;;;;;;1.30;99.90;;;;;;5113568;28;19993;-50
2022/01/29 06:21:15;;;;;;;;;;;1.30;99.90;;;;;;5113510;28;19924;-50
2022/01/29 06:23:44;;;;;;;;;;;1.30;99.90;;;;;;5113269;28;19969;-50
2022/01/29 06:26:12;;;;;;;;;;;1.50;99.90;;;;;;5113295;28;19935;-50
2022/01/29 06:28:39;;;;;;;;;;;1.60;99.90;;;;;;5113304;28;19924;-51
2022/01/29 06:31:07;;;;;;;;;;;1.60;99.90;;;;;;5113112;28;19924;-51
2022/01/29 06:33:33;;;;;;;;;;;1.70;99.90;;;;;;5113780;28;19928;-50
2022/01/29 06:36:00;;;;;;;;;;;1.80;99.90;;;;;;5113878;28;19924;-51
2022/01/29 06:38:27;;;;;;;;;;;1.80;99.90;;;;;;5112596;28;19977;-49
2022/01/29 06:40:55;;;;;;;;;;;1.80;99.90;;;;;;5113860;28;20336;-50
2022/01/29 06:43:22;;;;;;;;;;;1.90;99.90;;;;;;5113703;28;19977;-50
2022/01/29 06:45:49;;;;;;;;;;;2.00;99.90;;;;;;5110184;28;19993;-49
2022/01/29 06:48:16;;;;;;;;;;;2.10;99.90;;;;;;5106176;28;19970;-49
2022/01/29 06:50:42;;;;;;;;;;;2.10;99.90;;;;;;5105408;28;19976;-50
2022/01/29 06:53:13;;;;;;;;;;;2.20;99.90;;;;;;5109105;28;19977;-50
2022/01/29 06:55:40;;;;;;;;;;;2.20;99.90;;;;;;5113545;28;19924;-49
2022/01/29 06:58:09;;;;;;;;;;;2.20;99.90;;;;;;5101793;28;20023;-50
2022/01/29 07:00:36;;;;;;;;;;;2.30;99.90;;;;;;5100049;28;19927;-49
2022/01/29 07:03:03;;;;;;;;;;;2.40;99.90;;;;;;5112865;28;19928;-48
2022/01/29 07:05:30;;;;;;;;;;;2.50;99.90;;;;;;5113253;28;19984;-49
2022/01/29 07:07:57;;;;;;;;;;;2.50;99.90;;;;;;5112736;28;19928;-49
2022/01/29 07:10:23;;;;;;;;;;;2.40;99.90;;;;;;5113368;27;19924;-49
2022/01/29 07:12:50;;;;;;;;;;;2.50;99.90;;;;;;5110988;28;19934;-48
2022/01/29 07:15:19;;;;;;;;;;;2.40;99.90;;;;;;5103590;27;19931;-49
2022/01/29 07:17:46;;;;;;;;;;;2.40;99.90;;;;;;5107294;28;19927;-49
2022/01/29 07:20:13;;;;;;;;;;;2.40;99.90;;;;;;5112101;27;19932;-50
2022/01/29 07:22:40;;;;;;;;;;;2.50;99.90;;;;;;5111027;28;19977;-52
2022/01/29 07:25:07;;;;;;;;;;;2.40;99.90;;;;;;5111463;28;19924;-48
2022/01/29 07:27:34;;;;;;;;;;;2.50;99.90;;;;;;5112104;28;19923;-51
2022/01/29 07:30:01;;;;;;;;;;;2.40;99.90;;;;;;5112880;28;19923;-50
2022/01/29 07:32:29;;;;;;;;;;;2.50;99.90;;;;;;5122381;27;19923;-49
2022/01/29 07:34:56;;;;;;;;;;;2.40;99.90;;;;;;5133449;27;19924;-53
2022/01/29 07:37:23;;;;;;;;;;;2.50;99.90;;;;;;5125852;27;19977;-50
2022/01/29 07:39:49;;;;;;;;;;;2.50;99.90;;;;;;5112003;28;19969;-51
2022/01/29 07:42:16;;;;;;;;;;;2.60;99.90;;;;;;5112556;28;20351;-52
2022/01/29 07:44:43;;;;;;;;;;;2.60;99.90;;;;;;5108106;28;20389;-51
2022/01/29 07:47:13;;;;;;;;;;;2.60;99.90;;;;;;5108577;28;20007;-49
2022/01/29 07:49:42;;;;;;;;;;;2.70;99.90;;;;;;5114860;27;19996;-53
2022/01/29 07:52:08;;;;;;;;;;;2.90;99.90;;;;;;5116258;27;19939;-52
2022/01/29 07:54:35;;;;;;;;;;;2.80;99.90;;;;;;5111864;28;19932;-51
2022/01/29 07:57:02;;;;;;;;;;;2.70;99.90;;;;;;5112081;28;20294;-52
2022/01/29 07:59:29;;;;;;;;;;;2.70;99.90;;;;;;5111788;28;20377;-52
2022/01/29 08:01:56;;;;;;;;;;;2.80;99.90;;;;;;5112082;28;19936;-51
2022/01/29 08:04:24;;;;;;;;;;;2.90;99.90;;;;;;5111536;28;20023;-51
2022/01/29 08:06:52;;;;;;;;;;;2.90;99.90;;;;;;5110662;28;19930;-53
2022/01/29 08:09:19;;;;;;;;;;;2.90;99.90;;;;;;5112023;28;20335;-51
2022/01/29 08:11:46;;;;;;;;;;;3.00;99.90;;;;;;5108486;28;20615;-51
2022/01/29 08:14:13;;;;;;;;;;;3.00;99.90;;;;;;5106489;28;19928;-53
2022/01/29 08:16:39;;;;;;;;;;;3.00;99.90;;;;;;5111806;28;19923;-51
2022/01/29 08:19:06;;;;;;;;;;;3.00;99.90;;;;;;5111605;28;19938;-51
2022/01/29 08:21:33;;;;;;;;;;;3.10;99.90;;;;;;5111913;28;20389;-53
2022/01/29 08:24:01;;;;;;;;;;;3.00;99.90;;;;;;5110737;28;19932;-52
2022/01/29 08:26:28;;;;;;;;;;;3.10;99.90;;;;;;5112220;28;19977;-51
2022/01/29 08:28:55;;;;;;;;;;;3.20;99.90;;;;;;5111774;28;20039;-53
2022/01/29 08:31:22;;;;;;;;;;;3.30;99.90;;;;;;5111854;28;19924;-50
2022/01/29 08:33:48;;;;;;;;;;;3.30;99.90;;;;;;5091684;28;19924;-51
2022/01/29 08:36:15;;;;;;;;;;;3.20;99.90;;;;;;5091639;28;19970;-52
2022/01/29 08:38:42;;;;;;;;;;;3.30;99.90;;;;;;5091571;28;20000;-52
2022/01/29 08:41:10;;;;;;;;;;;3.30;99.90;;;;;;5091659;28;19931;-51
2022/01/29 08:43:37;;;;;;;;;;;3.40;99.90;;;;;;5093756;28;19924;-51
2022/01/29 08:46:03;;;;;;;;;;;3.50;99.90;;;;;;5095624;28;19986;-53
2022/01/29 08:48:30;;;;;;;;;;;3.50;99.90;;;;;;5097014;28;19977;-53
2022/01/29 08:50:57;;;;;;;;;;;3.50;99.90;;;;;;5115894;28;20321;-51
2022/01/29 08:53:24;;;;;;;;;;;3.60;99.90;;;;;;5113172;28;19976;-51
2022/01/29 08:55:50;;;;;;;;;;;3.70;99.90;;;;;;5114776;28;19923;-51
2022/01/29 08:58:18;;;;;;;;;;;3.70;99.90;;;;;;5113651;28;19924;-50
2022/01/29 09:00:46;;;;;;;;;;;3.80;99.90;;;;;;5107009;28;19930;-51
2022/01/29 09:03:16;;;;;;;;;;;3.90;99.90;;;;;;5113562;28;19931;-51
2022/01/29 09:05:43;;;;;;;;;;;3.80;99.90;;;;;;5113954;28;19924;-51
2022/01/29 09:08:14;;;;;;;;;;;3.90;99.90;;;;;;5114705;28;19932;-51
2022/01/29 09:10:40;;;;;;;;;;;3.90;99.90;;;;;;5114746;28;20381;-52
2022/01/29 09:13:07;;;;;;;;;;;4.10;99.90;;;;;;5114104;28;19932;-51
2022/01/29 09:15:35;;;;;;;;;;;4.20;99.90;;;;;;5106563;27;19970;-51
2022/01/29 09:18:02;;;;;;;;;;;4.20;99.90;;;;;;5114027;27;19932;-51
2022/01/29 09:20:29;;;;;;;;;;;4.10;99.90;;;;;;5115118;28;19977;-52
2022/01/29 09:22:56;;;;;;;;;;;4.20;99.90;;;;;;5115248;28;19924;-50
2022/01/29 09:25:24;;;;;;;;;;;4.20;99.90;;;;;;5115487;28;19928;-52
2022/01/29 09:27:51;;;;;;;;;;;4.10;99.90;;;;;;5115177;28;19930;-52
2022/01/29 09:30:18;;;;;;;;;;;4.00;99.90;;;;;;5115227;28;19938;-50
2022/01/29 09:32:46;;;;;;;;;;;3.90;99.90;;;;;;5114097;28;19996;-50
2022/01/29 09:35:12;;;;;;;;;;;4.00;99.90;;;;;;5114393;28;19935;-50
2022/01/29 09:37:39;;;;;;;;;;;3.90;99.90;;;;;;5115138;28;19968;-51
2022/01/29 09:40:07;;;;;;;;;;;3.80;99.90;;;;;;5114726;28;19927;-51
2022/01/29 09:42:35;;;;;;;;;;;3.90;99.90;;;;;;5115097;28;19923;-52
2022/01/29 09:45:02;;;;;;;;;;;3.90;99.90;;;;;;5111814;28;20682;-54
2022/01/29 09:47:29;;;;;;;;;;;3.80;99.90;;;;;;5111453;28;20389;-51
2022/01/29 09:49:57;;;;;;;;;;;3.90;99.90;;;;;;5111747;28;20441;-51
2022/01/29 09:52:24;;;;;;;;;;;4.00;99.90;;;;;;5112744;28;19928;-53
2022/01/29 09:54:51;;;;;;;;;;;4.10;99.90;;;;;;5104651;28;19923;-51
2022/01/29 09:57:18;;;;;;;;;;;4.10;99.90;;;;;;5114104;28;19977;-52
2022/01/29 09:59:46;;;;;;;;;;;4.10;99.90;;;;;;5113706;28;19988;-51
2022/01/29 10:02:17;;;;;;;;;;;4.30;99.90;;;;;;5113776;28;19936;-53
2022/01/29 10:04:48;;;;;;;;;;;4.30;99.90;;;;;;5094293;28;19978;-50
2022/01/29 10:07:17;;;;;;;;;;;4.40;99.90;;;;;;5103429;28;20360;-51
2022/01/29 10:09:44;;;;;;;;;;;4.40;99.90;;;;;;5113967;28;20549;-51
2022/01/29 10:12:18;;;;;;;;;;;4.50;99.90;;;;;;5113917;28;20382;-50
2022/01/29 10:14:49;;;;;;;;;;;4.50;99.90;;;;;;5114152;28;19931;-51
2022/01/29 10:17:37;;;;;;;;;;;4.60;99.90;;;;;;5114132;28;19969;-51
2022/01/29 10:20:08;;;;;;;;;;;4.70;99.90;;;;;;5113977;28;19924;-51
2022/01/29 10:22:36;;;;;;;;;;;5.10;99.90;;;;;;5113797;28;19923;-51
2022/01/29 10:25:04;;;;;;;;;;;5.40;99.90;;;;;;5114152;28;19927;-50
2022/01/29 10:27:31;;;;;;;;;;;5.50;99.90;;;;;;5113623;28;20450;-51
2022/01/29 10:29:58;;;;;;;;;;;5.70;99.90;;;;;;5113768;28;19927;-50
2022/01/29 10:32:25;;;;;;;;;;;5.90;99.90;;;;;;5113090;28;19973;-51
2022/01/29 10:34:54;;;;;;;;;;;5.80;99.90;;;;;;5110545;28;19928;-50
2022/01/29 10:37:22;;;;;;;;;;;5.90;99.90;;;;;;5113759;28;19927;-51
2022/01/29 10:39:51;;;;;;;;;;;6.00;99.90;;;;;;5113394;28;20338;-52
2022/01/29 10:42:19;;;;;;;;;;;6.20;99.90;;;;;;5113181;28;19923;-51
2022/01/29 10:44:46;;;;;;;;;;;6.20;99.90;;;;;;5113575;28;19924;-51
2022/01/29 10:47:13;;;;;;;;;;;6.60;99.90;;;;;;5111258;28;19935;-51
2022/01/29 10:49:45;;;;;;;;;;;6.90;99.90;;;;;;5110926;28;19970;-48
2022/01/29 10:52:12;;;;;;;;;;;7.20;99.90;;;;;;5108188;28;19967;-50
2022/01/29 10:54:40;;;;;;;;;;;7.60;99.90;;;;;;5109697;28;19969;-51
2022/01/29 10:57:10;;;;;;;;;;;7.80;99.90;;;;;;5111701;27;19927;-51
2022/01/29 10:59:38;;;;;;;;;;;8.00;99.90;;;;;;5110866;28;19973;-50
2022/01/29 11:02:06;;;;;;;;;;;7.90;99.90;;;;;;5092787;28;20289;-48
2022/01/29 11:04:34;;;;;;;;;;;8.40;99.90;;;;;;5111657;28;19974;-50
2022/01/29 11:07:05;;;;;;;;;;;8.90;99.90;;;;;;5112206;28;20064;-48
2022/01/29 11:09:32;;;;;;;;;;;9.20;99.90;;;;;;5113140;28;19924;-49
2022/01/29 11:12:01;;;;;;;;;;;9.40;99.90;;;;;;5113206;28;19978;-49
2022/01/29 11:14:31;;;;;;;;;;;9.40;99.90;;;;;;5111972;28;20358;-49
2022/01/29 11:16:58;;;;;;;;;;;8.90;99.90;;;;;;5106505;28;19923;-50
2022/01/29 11:19:25;;;;;;;;;;;9.00;99.90;;;;;;5112294;28;20410;-48
2022/01/29 11:21:53;;;;;;;;;;;9.20;99.90;;;;;;5112547;28;20381;-50
2022/01/29 11:24:22;;;;;;;;;;;9.20;99.90;;;;;;5112621;28;19924;-52
2022/01/29 11:26:49;;;;;;;;;;;9.20;99.90;;;;;;5112228;28;19976;-50
2022/01/29 11:29:23;;;;;;;;;;;9.10;99.90;;;;;;5112714;28;19936;-49
2022/01/29 11:32:11;;;;;;;;;;;9.20;99.90;;;;;;5112670;28;19923;-50
2022/01/29 11:34:53;;;;;;;;;;;9.30;99.90;;;;;;5112518;28;20000;-49
2022/01/29 11:37:36;;;;;;;;;;;9.50;99.90;;;;;;5112003;28;19924;-49
2022/01/29 11:40:26;;;;;;;;;;;9.70;99.90;;;;;;5106702;28;19924;-50
2022/01/29 11:42:54;;;;;;;;;;;9.40;99.90;;;;;;5102083;28;20001;-49
2022/01/29 11:45:38;;;;;;;;;;;9.10;99.90;;;;;;5112659;28;19992;-49
2022/01/29 11:48:07;;;;;;;;;;;9.10;99.90;;;;;;5132910;22;19927;-53
2022/01/29 11:50:47;;;;;;;;;;;9.40;99.90;;;;;;5113955;28;19967;-52
2022/01/29 11:53:15;;;;;;;;;;;9.60;99.90;;;;;;5113899;28;19923;-52
2022/01/29 11:55:44;;;;;;;;;;;9.50;99.90;;;;;;5113838;28;19924;-53
2022/01/29 11:58:18;;;;;;;;;;;9.40;99.90;;;;;;5112919;28;20058;-53
2022/01/29 12:00:46;;;;;;;;;;;9.00;99.90;;;;;;5092125;28;19928;-53
2022/01/29 12:03:31;;;;;;;;;;;8.80;99.90;;;;;;5081252;28;19933;-52
2022/01/29 12:06:16;;;;;;;;;;;8.80;99.90;;;;;;5093587;28;20313;-53
2022/01/29 12:09:04;;;;;;;;;;;8.90;99.90;;;;;;5092386;28;20341;-53
2022/01/29 12:11:32;;;;;;;;;;;8.80;99.90;;;;;;5095692;28;20390;-52
2022/01/29 12:14:18;;;;;;;;;;;8.50;99.90;;;;;;5088027;28;20294;-52
2022/01/29 12:16:48;;;;;;;;;;;8.70;99.90;;;;;;5093544;28;19927;-53
2022/01/29 12:19:30;;;;;;;;;;;8.60;99.90;;;;;;5092604;28;20340;-52
2022/01/29 12:21:58;;;;;;;;;;;8.50;99.90;;;;;;5092687;28;19924;-52
2022/01/29 12:24:25;;;;;;;;;;;8.40;99.90;;;;;;5072611;28;19924;-53
2022/01/29 12:26:55;;;;;;;;;;;8.20;99.90;;;;;;5072681;28;19930;-52
2022/01/29 12:29:22;;;;;;;;;;;8.20;99.90;;;;;;5083811;28;20349;-52
2022/01/29 12:31:49;;;;;;;;;;;8.10;99.90;;;;;;5073337;28;19962;-52
2022/01/29 12:34:16;;;;;;;;;;;8.20;99.90;;;;;;5083926;28;19991;-52
2022/01/29 12:36:43;;;;;;;;;;;8.10;99.90;;;;;;5093388;28;19924;-52
2022/01/29 12:39:20;;;;;;;;;;;7.80;99.90;;;;;;5092752;28;19924;-53
2022/01/29 12:41:48;;;;;;;;;;;7.70;99.90;;;;;;5078706;28;19932;-53
2022/01/29 12:44:18;;;;;;;;;;;7.70;99.90;;;;;;5072236;28;19924;-53
2022/01/29 12:46:46;;;;;;;;;;;7.80;99.90;;;;;;5072473;28;20002;-53
2022/01/29 12:49:14;;;;;;;;;;;7.60;99.90;;;;;;5072197;28;19978;-53
2022/01/29 12:51:50;;;;;;;;;;;7.80;99.90;;;;;;5072816;28;19970;-53
2022/01/29 12:54:18;;;;;;;;;;;7.70;99.90;;;;;;5074797;28;19977;-53
2022/01/29 12:56:45;;;;;;;;;;;7.60;99.90;;;;;;5092743;28;19928;-53
2022/01/29 12:59:12;;;;;;;;;;;7.70;99.90;;;;;;5092647;28;19924;-52
2022/01/29 13:01:40;;;;;;;;;;;7.90;99.90;;;;;;5093004;28;19931;-53
2022/01/29 13:04:07;;;;;;;;;;;7.90;99.90;;;;;;5093076;28;20026;-53
2022/01/29 13:06:34;;;;;;;;;;;7.80;99.90;;;;;;5083459;28;19936;-53
2022/01/29 13:09:14;;;;;;;;;;;7.90;99.90;;;;;;5072515;28;19932;-53
2022/01/29 13:11:43;;;;;;;;;;;7.80;99.90;;;;;;5072786;28;19933;-53
2022/01/29 13:14:13;;;;;;;;;;;7.90;99.90;;;;;;5072637;28;19970;-56
2022/01/29 13:16:40;;;;;;;;;;;7.80;99.90;;;;;;5072285;28;19924;-52
2022/01/29 13:19:07;;;;;;;;;;;7.60;99.90;;;;;;5071851;28;20304;-52
2022/01/29 13:21:34;;;;;;;;;;;7.70;99.90;;;;;;5075144;28;19928;-52
2022/01/29 13:24:02;;;;;;;;;;;7.80;99.90;;;;;;5072698;28;19931;-52
2022/01/29 13:26:30;;;;;;;;;;;7.70;99.90;;;;;;5072607;28;19928;-52
2022/01/29 13:29:04;;;;;;;;;;;7.70;99.90;;;;;;5072222;28;19931;-52
2022/01/29 13:31:43;;;;;;;;;;;7.80;99.90;;;;;;5075569;28;20030;-52
2022/01/29 13:34:24;;;;;;;;;;;7.70;99.90;;;;;;5076198;28;19924;-52
2022/01/29 13:36:52;;;;;;;;;;;7.70;99.90;;;;;;5090610;28;19969;-51
2022/01/29 13:39:19;;;;;;;;;;;7.70;99.90;;;;;;5084044;28;19947;-53
2022/01/29 13:41:46;;;;;;;;;;;7.80;99.90;;;;;;5086257;28;19934;-52
2022/01/29 13:44:14;;;;;;;;;;;7.70;99.90;;;;;;5080587;28;19977;-52
2022/01/29 13:46:41;;;;;;;;;;;7.70;99.90;;;;;;5086831;28;19928;-52
2022/01/29 13:49:08;;;;;;;;;;;7.70;99.90;;;;;;5076706;28;19928;-52
2022/01/29 13:51:35;;;;;;;;;;;7.70;99.90;;;;;;5088339;28;20398;-53
2022/01/29 13:54:03;;;;;;;;;;;7.70;99.90;;;;;;5092971;28;20449;-52
2022/01/29 13:56:30;;;;;;;;;;;7.70;99.90;;;;;;5092707;28;19924;-52
2022/01/29 13:58:58;;;;;;;;;;;7.60;99.90;;;;;;5081739;28;20536;-51
2022/01/29 14:01:37;;;;;;;;;;;7.60;99.90;;;;;;5094367;28;20125;-52
2022/01/29 14:04:04;;;;;;;;;;;7.70;99.90;;;;;;5087361;28;19924;-52
2022/01/29 14:06:33;;;;;;;;;;;7.70;99.90;;;;;;5075299;28;19924;-52
2022/01/29 14:09:16;;;;;;;;;;;7.70;99.90;;;;;;5076175;28;20299;-52
2022/01/29 14:11:56;;;;;;;;;;;7.80;99.90;;;;;;5076144;28;19924;-52
2022/01/29 14:14:23;;;;;;;;;;;7.80;99.90;;;;;;5095130;28;19976;-52
2022/01/29 14:16:51;;;;;;;;;;;7.70;99.90;;;;;;5090549;28;19928;-52
2022/01/29 14:19:19;;;;;;;;;;;7.70;99.90;;;;;;5094544;28;19924;-52
2022/01/29 14:21:48;;;;;;;;;;;7.70;99.90;;;;;;5074832;28;19974;-52
2022/01/29 14:24:16;;;;;;;;;;;7.50;99.90;;;;;;5075117;28;20409;-53
2022/01/29 14:26:42;;;;;;;;;;;7.50;99.90;;;;;;5074423;28;19925;-52
2022/01/29 14:29:10;;;;;;;;;;;7.40;99.90;;;;;;5074190;28;19925;-52
2022/01/29 14:31:37;;;;;;;;;;;7.50;99.90;;;;;;5074330;28;19925;-52
2022/01/29 14:34:05;;;;;;;;;;;7.50;99.90;;;;;;5074232;28;19928;-52
2022/01/29 14:36:32;;;;;;;;;;;7.60;99.90;;;;;;5075158;28;19954;-52
2022/01/29 14:38:59;;;;;;;;;;;7.60;99.90;;;;;;5074273;28;19924;-52
2022/01/29 14:41:25;;;;;;;;;;;7.60;99.90;;;;;;5074276;28;20463;-52
2022/01/29 14:43:52;;;;;;;;;;;7.60;99.90;;;;;;5083681;28;19954;-53
2022/01/29 14:46:19;;;;;;;;;;;7.70;99.90;;;;;;5078852;28;19978;-52